Time;durP1;ratioP1;P1;durP2;ratioP2;P2;SDS_P1;SDS_P2;PMS_P1;PMS_P2;Temp;Humidity;BMP_temperature;BMP_pressure;BME280_temperature;BME280_humidity;BME280_pressure;Samples;Min_cycle;Max_cycle;Signal;HPM_P1;HPM_P2
2021/03/22 00:01:17;;;;;;;32.70;10.90;;;4.60;83.80;;;;;;5036419;28;20192;-71
2021/03/22 00:03:43;;;;;;;28.87;9.90;;;4.60;84.00;;;;;;5034182;28;20266;-72
2021/03/22 00:06:10;;;;;;;25.93;10.17;;;4.60;84.30;;;;;;5036324;28;20554;-71
2021/03/22 00:08:36;;;;;;;24.90;9.37;;;4.60;84.10;;;;;;5043889;28;20422;-71
2021/03/22 00:11:02;;;;;;;29.50;9.60;;;4.60;84.30;;;;;;5028565;28;20519;-72
2021/03/22 00:13:28;;;;;;;26.37;9.70;;;4.70;84.10;;;;;;5041828;28;20212;-71
2021/03/22 00:15:57;;;;;;;33.97;11.30;;;4.70;83.80;;;;;;5036275;28;20415;-70
2021/03/22 00:18:27;;;;;;;26.13;9.67;;;4.70;83.70;;;;;;5043312;28;20196;-70
2021/03/22 00:20:54;;;;;;;23.97;8.80;;;4.70;83.60;;;;;;5029139;28;20431;-71
2021/03/22 00:23:19;;;;;;;22.77;8.90;;;4.70;83.70;;;;;;5042301;28;20436;-71
2021/03/22 00:25:45;;;;;;;33.43;10.77;;;4.80;83.80;;;;;;5037397;28;20476;-70
2021/03/22 00:28:13;;;;;;;28.83;9.33;;;4.80;83.60;;;;;;5036160;28;20184;-72
2021/03/22 00:30:42;;;;;;;26.27;9.47;;;4.80;83.10;;;;;;5036110;28;20474;-71
2021/03/22 00:33:09;;;;;;;32.27;8.47;;;4.80;83.30;;;;;;5042771;28;20473;-71
2021/03/22 00:35:35;;;;;;;37.23;9.43;;;4.80;83.30;;;;;;5037390;28;20994;-71
2021/03/22 00:38:00;;;;;;;21.73;8.87;;;4.80;83.10;;;;;;5047632;28;20438;-71
2021/03/22 00:40:29;;;;;;;22.43;8.80;;;4.80;83.40;;;;;;5048382;28;20180;-72
2021/03/22 00:42:56;;;;;;;44.30;9.63;;;4.90;83.40;;;;;;5019526;28;20189;-71
2021/03/22 00:45:23;;;;;;;40.87;9.37;;;4.80;83.30;;;;;;5027829;28;20479;-71
2021/03/22 00:47:50;;;;;;;31.63;9.10;;;4.80;83.30;;;;;;5031456;28;20469;-71
2021/03/22 00:50:34;;;;;;;34.83;8.70;;;4.80;83.60;;;;;;5044563;28;20453;-70
2021/03/22 00:53:08;;;;;;;28.67;8.73;;;4.80;83.40;;;;;;5110306;27;20518;-72
2021/03/22 00:55:35;;;;;;;29.13;10.17;;;4.80;83.60;;;;;;5087111;28;20857;-71
2021/03/22 00:58:00;;;;;;;25.87;8.00;;;4.90;83.60;;;;;;5080182;28;20426;-72
2021/03/22 01:00:47;;;;;;;25.03;8.63;;;4.80;83.40;;;;;;5078532;28;20433;-72
2021/03/22 01:03:18;;;;;;;31.83;9.47;;;4.70;84.30;;;;;;5084465;28;20185;-71
2021/03/22 01:05:44;;;;;;;27.37;8.30;;;4.80;84.30;;;;;;5083508;28;21005;-70
2021/03/22 01:08:10;;;;;;;24.20;8.90;;;4.80;83.80;;;;;;5084985;28;20421;-72
2021/03/22 01:10:59;;;;;;;36.67;9.50;;;4.80;83.70;;;;;;5084981;28;20206;-71
2021/03/22 01:13:28;;;;;;;21.33;8.10;;;4.80;83.80;;;;;;5085186;28;20448;-73
2021/03/22 01:15:55;;;;;;;26.73;8.87;;;4.80;83.80;;;;;;5088554;28;20428;-70
2021/03/22 01:18:24;;;;;;;17.73;7.50;;;4.90;83.60;;;;;;5080866;28;20541;-71
2021/03/22 01:20:59;;;;;;;23.80;8.20;;;4.90;83.30;;;;;;5086218;28;20420;-72
2021/03/22 01:23:24;;;;;;;26.33;9.07;;;4.90;83.30;;;;;;5099834;28;20405;-72
2021/03/22 01:25:50;;;;;;;22.57;7.23;;;4.80;83.40;;;;;;5101067;28;20429;-72
2021/03/22 01:28:19;;;;;;;31.33;8.30;;;4.80;83.30;;;;;;5102493;28;20191;-72
2021/03/22 01:30:50;;;;;;;24.00;8.47;;;4.80;83.30;;;;;;5100913;28;20191;-72
2021/03/22 01:33:19;;;;;;;28.83;8.40;;;4.70;83.30;;;;;;5096751;28;20425;-71
2021/03/22 01:35:45;;;;;;;23.93;8.30;;;4.80;83.60;;;;;;5080147;28;20803;-72
2021/03/22 01:38:11;;;;;;;23.20;7.97;;;4.80;83.00;;;;;;5083325;28;20456;-72
2021/03/22 01:40:57;;;;;;;26.43;8.17;;;4.80;82.80;;;;;;5081901;28;20916;-71
2021/03/22 01:43:54;;;;;;;30.07;8.13;;;4.80;82.80;;;;;;5084461;28;20432;-72
2021/03/22 01:46:21;;;;;;;26.83;6.80;;;4.70;82.70;;;;;;5080606;28;20426;-72
2021/03/22 01:48:47;;;;;;;36.70;7.47;;;4.70;83.00;;;;;;5077402;28;20424;-71
2021/03/22 01:51:14;;;;;;;29.50;8.20;;;4.60;83.30;;;;;;5081040;28;20469;-73
2021/03/22 01:53:40;;;;;;;22.67;7.00;;;4.70;83.40;;;;;;5077619;28;20302;-71
2021/03/22 01:56:33;;;;;;;23.87;7.47;;;4.60;83.40;;;;;;5085029;28;20501;-72
2021/03/22 01:58:59;;;;;;;27.60;6.67;;;4.60;83.60;;;;;;5080002;28;20319;-72
2021/03/22 02:01:28;;;;;;;35.33;7.70;;;4.60;83.40;;;;;;5085376;28;20486;-72
2021/03/22 02:03:55;;;;;;;17.00;6.47;;;4.60;83.60;;;;;;5075335;28;20480;-71
2021/03/22 02:06:21;;;;;;;26.93;7.77;;;4.70;83.10;;;;;;5064557;28;20853;-72
2021/03/22 02:08:48;;;;;;;28.47;7.30;;;4.70;83.10;;;;;;5068569;28;20921;-71
2021/03/22 02:11:22;;;;;;;33.20;8.17;;;4.70;83.00;;;;;;5070485;28;20461;-69
2021/03/22 02:13:49;;;;;;;28.13;7.20;;;4.80;82.80;;;;;;5071978;28;20811;-71
2021/03/22 02:16:27;;;;;;;20.93;7.70;;;4.80;82.70;;;;;;5071923;28;20426;-71
2021/03/22 02:19:20;;;;;;;20.90;6.67;;;4.80;82.80;;;;;;5072161;28;20422;-70
2021/03/22 02:22:06;;;;;;;36.80;7.07;;;4.70;83.30;;;;;;5070467;28;20481;-72
2021/03/22 02:24:59;;;;;;;26.13;6.87;;;4.60;83.30;;;;;;5033694;28;21255;-71
2021/03/22 02:27:40;;;;;;;25.57;7.13;;;4.60;83.80;;;;;;5065056;28;20485;-71
2021/03/22 02:30:32;;;;;;;24.60;7.20;;;4.60;84.10;;;;;;5072228;28;20436;-72
2021/03/22 02:33:04;;;;;;;18.93;6.70;;;4.60;83.70;;;;;;5071473;28;20469;-72
2021/03/22 02:35:51;;;;;;;25.17;6.83;;;4.60;83.80;;;;;;5070149;28;20471;-71
2021/03/22 02:38:30;;;;;;;25.23;6.80;;;4.50;84.40;;;;;;5070445;28;20434;-71
2021/03/22 02:41:10;;;;;;;25.97;8.60;;;4.60;84.40;;;;;;5087271;28;20437;-71
2021/03/22 02:43:37;;;;;;;23.87;6.73;;;4.60;83.80;;;;;;5069121;28;20450;-72
2021/03/22 02:46:06;;;;;;;29.40;7.70;;;4.60;84.00;;;;;;5072707;28;20418;-71
2021/03/22 02:48:33;;;;;;;17.93;6.73;;;4.60;84.10;;;;;;5076490;28;20426;-72
2021/03/22 02:51:10;;;;;;;20.13;6.30;;;4.60;83.70;;;;;;5076458;28;20933;-71
2021/03/22 02:53:50;;;;;;;27.37;6.03;;;4.60;83.70;;;;;;5083726;28;20440;-71
2021/03/22 02:56:35;;;;;;;25.23;6.90;;;4.60;84.00;;;;;;5077986;28;20480;-71
2021/03/22 02:59:09;;;;;;;23.73;6.93;;;4.50;84.00;;;;;;5070504;28;20437;-71
2021/03/22 03:01:50;;;;;;;21.77;7.43;;;4.50;83.70;;;;;;5073107;28;20472;-72
2021/03/22 03:04:17;;;;;;;24.00;6.43;;;4.50;83.40;;;;;;5074242;28;20449;-70
2021/03/22 03:06:59;;;;;;;18.53;6.00;;;4.50;83.40;;;;;;5072042;28;20450;-72
2021/03/22 03:09:31;;;;;;;21.10;5.97;;;4.50;83.60;;;;;;5059282;28;20422;-72
2021/03/22 03:12:17;;;;;;;19.27;6.00;;;4.60;83.40;;;;;;5074711;28;20582;-73
2021/03/22 03:14:46;;;;;;;13.07;5.73;;;4.60;83.40;;;;;;5069620;28;20445;-72
2021/03/22 03:17:12;;;;;;;30.90;6.17;;;4.50;83.00;;;;;;5071632;28;20447;-71
2021/03/22 03:19:38;;;;;;;22.37;5.90;;;4.50;82.80;;;;;;5071050;28;20453;-70
2021/03/22 03:22:05;;;;;;;27.53;6.13;;;4.50;82.10;;;;;;5071097;28;20219;-73
2021/03/22 03:24:31;;;;;;;23.53;5.73;;;4.50;81.70;;;;;;5069666;28;20238;-71
2021/03/22 03:26:56;;;;;;;15.00;6.00;;;4.50;81.90;;;;;;5071398;28;20932;-72
2021/03/22 03:29:22;;;;;;;19.23;4.93;;;4.50;81.90;;;;;;5069832;28;20430;-72
2021/03/22 03:31:48;;;;;;;21.40;5.33;;;4.50;81.40;;;;;;5065796;28;20306;-72
2021/03/22 03:34:14;;;;;;;14.20;4.87;;;4.50;80.80;;;;;;5059528;28;20767;-72
2021/03/22 03:36:41;;;;;;;27.90;5.53;;;4.40;81.10;;;;;;5071800;28;20497;-71
2021/03/22 03:39:07;;;;;;;13.10;6.10;;;4.40;81.80;;;;;;5072237;28;20183;-72
2021/03/22 03:41:38;;;;;;;13.50;5.03;;;4.40;81.50;;;;;;5073089;28;20422;-71
2021/03/22 03:44:06;;;;;;;14.87;5.20;;;4.50;80.90;;;;;;5072363;28;20438;-71
2021/03/22 03:46:32;;;;;;;20.13;5.23;;;4.50;80.30;;;;;;5071058;28;20948;-71
2021/03/22 03:48:58;;;;;;;15.00;4.83;;;4.50;80.50;;;;;;5070562;28;20488;-71
2021/03/22 03:51:23;;;;;;;26.80;5.90;;;4.50;79.70;;;;;;5070796;28;20223;-72
2021/03/22 03:53:49;;;;;;;26.00;5.67;;;4.50;80.20;;;;;;5069765;28;20210;-72
2021/03/22 03:56:15;;;;;;;24.93;6.90;;;4.50;80.30;;;;;;5069493;28;20187;-72
2021/03/22 03:58:41;;;;;;;21.53;6.43;;;4.40;80.90;;;;;;5067272;28;20187;-72
2021/03/22 04:01:06;;;;;;;26.93;7.30;;;4.40;81.40;;;;;;5070032;28;20192;-72
2021/03/22 04:03:36;;;;;;;18.43;5.30;;;4.40;81.80;;;;;;5069591;28;20446;-72
2021/03/22 04:06:13;;;;;;;17.73;5.73;;;4.30;82.10;;;;;;5067707;28;20453;-71
2021/03/22 04:08:46;;;;;;;14.77;5.50;;;4.20;82.80;;;;;;5068475;28;20429;-71
2021/03/22 04:11:16;;;;;;;28.77;6.17;;;4.20;83.10;;;;;;5068634;28;20472;-72
2021/03/22 04:13:42;;;;;;;32.60;6.20;;;4.20;83.30;;;;;;5069398;28;20445;-72
2021/03/22 04:16:10;;;;;;;22.83;5.40;;;4.30;83.10;;;;;;5069081;28;20426;-72
2021/03/22 04:18:37;;;;;;;24.03;5.00;;;4.30;83.10;;;;;;5066895;28;20496;-72
2021/03/22 04:21:05;;;;;;;21.50;5.97;;;4.20;82.70;;;;;;5069667;28;20418;-73
2021/03/22 04:23:31;;;;;;;27.67;5.70;;;4.20;82.20;;;;;;5069676;28;20473;-71
2021/03/22 04:25:57;;;;;;;17.37;4.80;;;4.20;81.80;;;;;;5071810;28;20429;-71
2021/03/22 04:28:23;;;;;;;18.70;5.67;;;4.20;80.20;;;;;;5074434;28;20422;-71
2021/03/22 04:30:48;;;;;;;13.50;4.57;;;4.30;79.50;;;;;;5070122;28;20261;-70
2021/03/22 04:33:14;;;;;;;17.97;4.60;;;4.20;79.30;;;;;;5056099;28;20656;-71
2021/03/22 04:35:40;;;;;;;17.87;5.60;;;4.30;79.30;;;;;;5070152;28;20212;-71
2021/03/22 04:38:06;;;;;;;17.50;4.50;;;4.40;78.40;;;;;;5086276;28;20253;-72
2021/03/22 04:40:31;;;;;;;23.60;5.47;;;4.30;78.00;;;;;;5071943;28;20187;-71
2021/03/22 04:42:57;;;;;;;19.30;5.33;;;4.30;78.90;;;;;;5070587;28;20714;-71
2021/03/22 04:45:28;;;;;;;19.87;5.00;;;4.20;79.90;;;;;;5069863;28;20218;-71
2021/03/22 04:47:54;;;;;;;15.77;4.90;;;4.30;80.30;;;;;;5068120;28;20278;-72
2021/03/22 04:50:22;;;;;;;26.23;5.10;;;4.30;80.90;;;;;;5069369;28;20456;-72
2021/03/22 04:52:48;;;;;;;23.13;5.13;;;4.30;81.50;;;;;;5068935;28;21045;-71
2021/03/22 04:55:16;;;;;;;10.40;4.87;;;4.30;81.80;;;;;;5068062;28;20480;-71
2021/03/22 04:57:42;;;;;;;16.20;5.70;;;4.30;81.90;;;;;;5066865;28;20513;-71
2021/03/22 05:00:13;;;;;;;22.53;4.97;;;4.20;81.90;;;;;;5068809;28;21111;-71
2021/03/22 05:02:39;;;;;;;20.73;4.87;;;4.20;82.20;;;;;;5068619;28;20187;-71
2021/03/22 05:05:06;;;;;;;27.93;5.10;;;4.20;82.70;;;;;;5067799;28;20437;-72
2021/03/22 05:07:32;;;;;;;15.77;5.77;;;4.30;82.20;;;;;;5068470;28;20667;-70
2021/03/22 05:09:58;;;;;;;22.60;5.37;;;4.30;81.40;;;;;;5063821;28;20435;-72
2021/03/22 05:12:24;;;;;;;17.27;4.30;;;4.30;81.90;;;;;;5065001;28;20469;-71
2021/03/22 05:14:50;;;;;;;17.80;4.90;;;4.30;81.70;;;;;;5067696;28;20300;-72
2021/03/22 05:17:16;;;;;;;20.77;5.13;;;4.30;81.20;;;;;;5067575;28;20187;-71
2021/03/22 05:19:42;;;;;;;15.20;4.53;;;4.30;80.90;;;;;;5068728;28;20483;-71
2021/03/22 05:22:07;;;;;;;13.37;4.30;;;4.30;79.70;;;;;;5069550;28;20511;-72
2021/03/22 05:24:33;;;;;;;21.97;5.73;;;4.30;79.20;;;;;;5068312;28;20207;-71
2021/03/22 05:26:59;;;;;;;15.87;4.00;;;4.30;79.20;;;;;;5069606;28;20426;-71
2021/03/22 05:29:26;;;;;;;15.13;4.40;;;4.30;79.20;;;;;;5068979;28;20188;-72
2021/03/22 05:31:53;;;;;;;15.67;4.37;;;4.30;78.10;;;;;;5067274;28;20280;-71
2021/03/22 05:34:20;;;;;;;16.97;4.50;;;4.40;76.50;;;;;;5066496;28;20533;-71
2021/03/22 05:36:45;;;;;;;28.97;4.77;;;4.40;76.40;;;;;;5068934;28;20418;-72
2021/03/22 05:39:11;;;;;;;13.70;3.70;;;4.40;76.50;;;;;;5071309;28;20475;-71
2021/03/22 05:42:10;;;;;;;10.00;3.90;;;4.30;76.20;;;;;;5073106;28;20980;-72
2021/03/22 05:44:58;;;;;;;18.23;3.97;;;4.30;76.10;;;;;;5071803;28;21218;-71
2021/03/22 05:47:26;;;;;;;11.57;3.77;;;4.30;76.20;;;;;;5072644;28;20513;-70
2021/03/22 05:50:11;;;;;;;11.97;3.50;;;4.30;75.50;;;;;;5071980;28;20430;-72
2021/03/22 05:52:57;;;;;;;11.77;4.40;;;4.20;75.80;;;;;;5072844;28;21042;-71
2021/03/22 05:56:01;;;;;;;14.70;4.03;;;4.30;75.90;;;;;;5073020;28;20465;-72
2021/03/22 05:58:38;;;;;;;13.83;4.60;;;4.30;76.10;;;;;;5027181;28;20423;-71
2021/03/22 06:01:11;;;;;;;10.95;4.32;;;4.30;76.40;;;;;;5024500;28;20424;-71
2021/03/22 06:03:36;;;;;;;15.60;4.07;;;4.40;76.20;;;;;;5038927;28;20201;-71
2021/03/22 06:06:11;;;;;;;16.53;4.77;;;4.40;76.40;;;;;;5011581;28;20431;-71
2021/03/22 06:08:42;;;;;;;12.10;3.87;;;4.30;76.50;;;;;;5027713;28;20215;-71
2021/03/22 06:11:34;;;;;;;13.03;4.63;;;4.30;77.40;;;;;;5016946;28;20436;-71
2021/03/22 06:14:10;;;;;;;19.70;4.47;;;4.30;78.10;;;;;;4999803;28;20491;-72
2021/03/22 06:16:45;;;;;;;20.23;5.00;;;4.30;78.70;;;;;;5018040;28;20428;-71
2021/03/22 06:19:16;;;;;;;14.43;5.00;;;4.30;79.00;;;;;;5009610;28;20424;-71
2021/03/22 06:21:45;;;;;;;20.97;5.73;;;4.30;80.00;;;;;;5024351;28;20436;-70
2021/03/22 06:24:14;;;;;;;20.27;6.33;;;4.30;80.50;;;;;;5028569;28;20468;-73
2021/03/22 06:26:43;;;;;;;18.03;5.90;;;4.40;80.90;;;;;;5026270;28;20920;-73
2021/03/22 06:29:14;;;;;;;19.30;5.13;;;4.40;81.10;;;;;;5026305;28;20456;-72
2021/03/22 06:31:41;;;;;;;14.67;5.53;;;4.30;81.70;;;;;;5018464;28;20493;-71
2021/03/22 06:34:09;;;;;;;31.10;6.70;;;4.30;81.90;;;;;;5061108;28;20441;-71
2021/03/22 06:36:36;;;;;;;19.87;5.30;;;4.40;82.20;;;;;;5070260;28;20445;-72
2021/03/22 06:39:06;;;;;;;21.20;5.90;;;4.30;82.50;;;;;;5071776;28;20425;-73
2021/03/22 06:41:53;;;;;;;17.07;5.90;;;4.30;83.30;;;;;;5071743;28;20422;-71
2021/03/22 06:44:37;;;;;;;19.53;5.80;;;4.20;83.80;;;;;;5070732;28;20441;-71
2021/03/22 06:47:23;;;;;;;24.60;4.90;;;4.10;84.30;;;;;;5060721;28;20488;-71
2021/03/22 06:50:12;;;;;;;27.13;5.83;;;4.10;84.70;;;;;;5071250;28;20426;-72
2021/03/22 06:52:42;;;;;;;27.23;5.60;;;4.10;84.90;;;;;;5073113;28;20469;-71
2021/03/22 06:55:30;;;;;;;17.80;4.77;;;4.10;84.60;;;;;;5073324;28;20940;-72
2021/03/22 06:57:56;;;;;;;24.70;5.60;;;4.10;84.40;;;;;;5070581;28;20950;-72
2021/03/22 07:00:27;;;;;;;14.80;5.47;;;4.10;84.10;;;;;;5069411;28;20425;-72
2021/03/22 07:02:58;;;;;;;19.50;5.13;;;4.10;84.00;;;;;;5071999;28;20414;-71
2021/03/22 07:05:29;;;;;;;19.73;5.20;;;4.10;83.60;;;;;;5070999;28;20457;-72
2021/03/22 07:08:04;;;;;;;16.43;5.70;;;4.10;84.00;;;;;;5059195;28;20926;-72
2021/03/22 07:10:39;;;;;;;22.83;5.07;;;4.20;83.60;;;;;;5072059;28;20426;-71
2021/03/22 07:13:16;;;;;;;21.33;5.17;;;4.30;83.60;;;;;;5071244;28;20461;-71
2021/03/22 07:15:43;;;;;;;18.70;5.30;;;4.40;83.10;;;;;;5070269;28;20410;-71
2021/03/22 07:18:33;;;;;;;14.87;4.43;;;4.50;83.00;;;;;;5071303;28;20442;-73
2021/03/22 07:21:05;;;;;;;18.03;5.10;;;4.50;82.20;;;;;;5060211;28;20410;-73
2021/03/22 07:23:44;;;;;;;16.77;4.83;;;4.40;81.90;;;;;;5071035;28;20530;-72
2021/03/22 07:26:15;;;;;;;13.17;4.40;;;4.40;82.10;;;;;;5070584;28;20417;-71
2021/03/22 07:29:01;;;;;;;18.20;5.33;;;4.40;82.10;;;;;;5065376;28;20423;-71
2021/03/22 07:31:38;;;;;;;14.70;4.77;;;4.50;82.20;;;;;;5065061;28;20955;-71
2021/03/22 07:34:24;;;;;;;18.97;4.73;;;4.50;82.10;;;;;;5057941;28;20452;-72
2021/03/22 07:37:18;;;;;;;15.30;4.40;;;4.50;81.20;;;;;;5070679;28;20418;-73
2021/03/22 07:40:05;;;;;;;12.97;4.20;;;4.60;81.50;;;;;;5066876;28;20549;-75
2021/03/22 07:42:44;;;;;;;15.73;5.10;;;4.80;80.90;;;;;;5071045;28;20957;-73
2021/03/22 07:45:40;;;;;;;22.47;6.87;;;4.80;80.50;;;;;;5070068;28;20452;-74
2021/03/22 07:48:29;;;;;;;20.67;5.40;;;4.80;80.00;;;;;;5070579;28;20448;-73
2021/03/22 07:51:19;;;;;;;16.30;5.03;;;4.80;79.50;;;;;;5070471;28;20506;-74
2021/03/22 07:54:08;;;;;;;17.23;5.30;;;4.80;80.00;;;;;;5071467;28;20541;-73
2021/03/22 07:57:00;;;;;;;22.43;6.53;;;4.90;80.00;;;;;;5038345;28;20456;-74
2021/03/22 07:59:45;;;;;;;19.90;5.37;;;4.90;78.40;;;;;;5072029;28;20418;-73
2021/03/22 08:02:42;;;;;;;13.80;5.17;;;4.80;78.40;;;;;;5041048;28;20501;-73
2021/03/22 08:05:21;;;;;;;11.57;4.53;;;4.80;78.70;;;;;;5071223;28;20476;-75
2021/03/22 08:08:15;;;;;;;14.73;5.27;;;4.80;77.70;;;;;;5070911;28;20513;-75
2021/03/22 08:10:47;;;;;;;21.73;4.70;;;4.70;78.00;;;;;;5069823;28;20433;-75
2021/03/22 08:13:30;;;;;;;14.20;4.13;;;4.70;78.90;;;;;;5063580;28;20537;-74
2021/03/22 08:16:40;;;;;;;12.30;3.93;;;4.90;79.00;;;;;;5068323;28;20429;-74
2021/03/22 08:19:26;;;;;;;12.43;3.87;;;5.10;77.70;;;;;;5006933;28;20422;-73
2021/03/22 08:22:10;;;;;;;13.20;3.30;;;5.20;76.50;;;;;;5061391;28;20488;-74
2021/03/22 08:24:45;;;;;;;22.73;4.27;;;5.20;75.90;;;;;;5069781;28;20448;-74
2021/03/22 08:27:15;;;;;;;17.50;3.90;;;5.30;75.70;;;;;;5070566;28;21241;-73
2021/03/22 08:30:03;;;;;;;12.60;3.23;;;5.30;74.30;;;;;;5068255;28;20509;-73
2021/03/22 08:32:59;;;;;;;18.50;3.57;;;5.20;73.30;;;;;;5057436;28;20470;-72
2021/03/22 08:35:58;;;;;;;11.73;3.27;;;5.20;73.50;;;;;;5069068;28;20442;-72
2021/03/22 08:38:32;;;;;;;8.73;2.47;;;5.00;72.90;;;;;;5068889;28;20548;-73
2021/03/22 08:40:59;;;;;;;13.70;2.93;;;4.90;73.20;;;;;;5064506;28;20431;-72
2021/03/22 08:43:50;;;;;;;15.77;3.03;;;4.90;73.70;;;;;;5082855;28;20429;-72
2021/03/22 08:46:26;;;;;;;11.50;3.43;;;4.80;74.00;;;;;;5063837;28;20418;-72
2021/03/22 08:48:52;;;;;;;13.17;3.70;;;5.00;75.40;;;;;;5066316;28;20508;-71
2021/03/22 08:51:23;;;;;;;16.57;4.27;;;5.30;75.40;;;;;;5065650;28;20568;-72
2021/03/22 08:53:52;;;;;;;12.73;3.33;;;5.60;74.20;;;;;;5066244;28;20315;-72
2021/03/22 08:56:37;;;;;;;15.93;4.53;;;5.50;73.30;;;;;;5066424;28;20414;-71
2021/03/22 08:59:09;;;;;;;10.37;3.93;;;5.40;73.90;;;;;;5063612;28;20824;-71
2021/03/22 09:01:41;;;;;;;24.17;3.80;;;5.30;74.30;;;;;;5067013;28;20433;-72
2021/03/22 09:04:20;;;;;;;14.53;3.67;;;5.50;74.60;;;;;;5065633;28;20458;-72
2021/03/22 09:07:10;;;;;;;16.70;3.97;;;5.50;74.00;;;;;;5064868;28;20435;-71
2021/03/22 09:09:42;;;;;;;7.27;3.17;;;5.30;74.60;;;;;;5067760;28;20799;-71
2021/03/22 09:12:31;;;;;;;9.50;3.83;;;5.30;74.80;;;;;;5069144;28;20488;-72
2021/03/22 09:14:58;;;;;;;11.77;4.10;;;5.30;74.90;;;;;;5072423;28;20717;-71
2021/03/22 09:17:48;;;;;;;14.20;3.47;;;5.30;74.60;;;;;;5076693;28;20512;-71
2021/03/22 09:20:43;;;;;;;14.27;3.27;;;5.10;74.80;;;;;;5075977;28;20429;-71
2021/03/22 09:23:31;;;;;;;9.93;3.63;;;5.00;75.80;;;;;;5019610;28;20559;-73
2021/03/22 09:26:08;;;;;;;9.20;3.10;;;5.00;75.50;;;;;;5082057;28;20528;-72
2021/03/22 09:28:39;;;;;;;11.40;2.90;;;4.90;74.90;;;;;;5072975;28;20417;-71
2021/03/22 09:31:17;;;;;;;11.07;3.40;;;5.00;75.10;;;;;;5071429;28;20424;-72
2021/03/22 09:34:03;;;;;;;9.13;2.87;;;4.90;75.90;;;;;;5068517;28;20568;-71
2021/03/22 09:36:46;;;;;;;10.40;3.07;;;5.10;75.90;;;;;;5072231;28;20438;-72
2021/03/22 09:39:18;;;;;;;8.10;3.00;;;5.20;75.20;;;;;;5072372;28;20476;-71
2021/03/22 09:42:03;;;;;;;8.40;3.10;;;5.40;74.80;;;;;;5070019;28;20582;-71
2021/03/22 09:44:35;;;;;;;12.87;2.80;;;5.30;74.20;;;;;;5068472;28;20536;-71
2021/03/22 09:47:14;;;;;;;7.27;2.77;;;5.30;74.20;;;;;;5068423;28;20437;-72
2021/03/22 09:49:57;;;;;;;9.73;2.93;;;5.30;74.20;;;;;;5069429;28;20436;-72
2021/03/22 09:52:32;;;;;;;13.93;3.07;;;5.40;74.20;;;;;;5069380;28;20470;-72
2021/03/22 09:54:59;;;;;;;10.93;2.93;;;5.50;73.60;;;;;;5068901;28;20433;-72
2021/03/22 09:57:52;;;;;;;11.10;3.60;;;5.70;72.90;;;;;;5067705;28;20422;-71
2021/03/22 10:00:33;;;;;;;12.37;3.20;;;5.70;72.40;;;;;;5064871;28;20426;-72
2021/03/22 10:03:20;;;;;;;10.20;4.20;;;5.70;72.40;;;;;;5067656;28;20461;-72
2021/03/22 10:05:45;;;;;;;12.57;3.50;;;5.90;72.00;;;;;;5055803;28;20453;-71
2021/03/22 10:08:11;;;;;;;17.20;3.73;;;6.00;72.00;;;;;;5064840;28;20431;-73
2021/03/22 10:10:57;;;;;;;14.20;3.87;;;6.30;71.00;;;;;;5065877;28;20275;-72
2021/03/22 10:13:28;;;;;;;8.13;3.00;;;6.50;69.80;;;;;;5068972;28;20262;-73
2021/03/22 10:16:37;;;;;;;14.50;3.80;;;6.50;68.80;;;;;;5065729;28;20462;-72
2021/03/22 10:19:18;;;;;;;13.60;3.67;;;6.50;69.10;;;;;;5068147;28;20430;-71
2021/03/22 10:21:51;;;;;;;7.67;3.23;;;6.50;69.10;;;;;;5069935;28;20448;-72
2021/03/22 10:24:45;;;;;;;9.97;3.33;;;6.40;68.90;;;;;;5068887;28;20945;-72
2021/03/22 10:27:24;;;;;;;12.13;3.57;;;6.20;69.50;;;;;;5069466;28;20422;-70
2021/03/22 10:29:50;;;;;;;9.07;3.20;;;6.30;68.60;;;;;;5069844;28;20426;-71
2021/03/22 10:32:24;;;;;;;10.47;3.13;;;6.10;69.20;;;;;;5069803;28;20469;-72
2021/03/22 10:35:14;;;;;;;11.80;3.07;;;6.00;70.40;;;;;;5053218;28;20299;-72
2021/03/22 10:37:44;;;;;;;4.67;2.37;;;6.00;70.70;;;;;;5067932;28;20914;-72
2021/03/22 10:40:33;;;;;;;7.40;2.40;;;5.90;69.70;;;;;;5070742;28;20422;-71
2021/03/22 10:42:59;;;;;;;14.80;3.43;;;5.80;69.40;;;;;;5072623;28;20517;-71
2021/03/22 10:45:35;;;;;;;8.63;3.00;;;5.60;71.60;;;;;;5064950;28;20469;-72
2021/03/22 10:48:21;;;;;;;8.13;3.50;;;5.60;72.30;;;;;;5070965;28;20919;-72
2021/03/22 10:50:57;;;;;;;14.13;3.17;;;5.60;72.90;;;;;;5071122;28;20425;-72
2021/03/22 10:53:23;;;;;;;7.43;2.70;;;5.60;73.50;;;;;;5065378;28;20972;-71
2021/03/22 10:55:49;;;;;;;10.00;3.03;;;5.60;73.90;;;;;;5065172;28;20429;-72
2021/03/22 10:58:45;;;;;;;5.67;2.53;;;5.70;73.00;;;;;;5069539;28;20214;-73
2021/03/22 11:01:11;;;;;;;5.80;2.47;;;5.80;72.00;;;;;;4992853;28;21251;-74
2021/03/22 11:03:38;;;;;;;5.60;2.57;;;5.80;71.40;;;;;;5010100;28;20974;-74
2021/03/22 11:06:12;;;;;;;11.30;3.73;;;5.90;71.60;;;;;;5008551;28;20429;-72
2021/03/22 11:08:42;;;;;;;10.30;3.37;;;6.10;71.30;;;;;;5009969;28;20515;-72
2021/03/22 11:11:11;;;;;;;9.60;3.00;;;6.10;70.80;;;;;;5009893;28;20504;-71
2021/03/22 11:13:40;;;;;;;14.20;3.73;;;6.00;71.60;;;;;;5008141;28;20991;-72
2021/03/22 11:16:08;;;;;;;17.37;3.40;;;6.00;72.10;;;;;;5007879;28;20429;-72
2021/03/22 11:18:35;;;;;;;10.67;3.40;;;5.90;72.10;;;;;;4992250;28;20892;-72
2021/03/22 11:21:02;;;;;;;9.47;3.50;;;6.00;72.30;;;;;;5008791;28;20429;-73
2021/03/22 11:23:31;;;;;;;8.40;2.87;;;6.00;72.30;;;;;;4991074;28;20572;-71
2021/03/22 11:26:09;;;;;;;4.17;2.53;;;5.90;72.00;;;;;;5007548;28;20439;-70
2021/03/22 11:28:35;;;;;;;12.03;3.40;;;6.00;72.10;;;;;;5008662;28;20506;-71
2021/03/22 11:31:26;;;;;;;15.60;2.80;;;6.00;70.40;;;;;;5009230;28;21172;-73
2021/03/22 11:34:12;;;;;;;8.37;2.60;;;6.00;69.40;;;;;;5002405;28;20226;-71
2021/03/22 11:36:45;;;;;;;5.63;2.30;;;5.90;69.80;;;;;;5017312;28;20428;-72
2021/03/22 11:39:26;;;;;;;7.97;3.00;;;6.10;69.90;;;;;;5072365;28;20491;-71
2021/03/22 11:41:52;;;;;;;11.77;3.77;;;6.30;69.70;;;;;;5069055;28;20429;-71
2021/03/22 11:44:29;;;;;;;8.43;2.87;;;6.40;68.60;;;;;;5068921;28;21208;-71
2021/03/22 11:46:57;;;;;;;10.20;2.80;;;6.30;68.20;;;;;;5068900;28;20724;-71
2021/03/22 11:49:41;;;;;;;9.03;3.17;;;6.30;69.20;;;;;;5069606;28;20422;-72
2021/03/22 11:52:24;;;;;;;10.63;3.30;;;6.40;69.10;;;;;;5069986;28;20994;-70
2021/03/22 11:54:55;;;;;;;6.87;2.80;;;6.50;67.90;;;;;;5069086;28;20486;-71
2021/03/22 11:57:29;;;;;;;9.63;2.97;;;6.60;67.30;;;;;;5067723;28;20423;-71
2021/03/22 12:00:21;;;;;;;6.93;3.00;;;6.80;67.50;;;;;;5065052;28;20429;-71
2021/03/22 12:02:59;;;;;;;9.70;3.13;;;7.00;66.70;;;;;;5068328;28;20991;-71
2021/03/22 12:05:32;;;;;;;8.30;3.20;;;7.20;66.70;;;;;;5069851;28;20437;-71
2021/03/22 12:07:58;;;;;;;11.40;3.27;;;7.40;64.50;;;;;;5071219;28;20455;-73
2021/03/22 12:10:32;;;;;;;7.60;2.90;;;7.50;63.90;;;;;;5070246;28;20430;-72
2021/03/22 12:13:00;;;;;;;8.23;3.17;;;7.30;63.90;;;;;;5069845;28;20553;-72
2021/03/22 12:15:27;;;;;;;6.97;2.90;;;7.50;64.20;;;;;;5068358;28;20482;-72
2021/03/22 12:18:08;;;;;;;10.33;3.30;;;7.40;64.80;;;;;;5069815;28;20414;-71
2021/03/22 12:20:35;;;;;;;7.77;3.37;;;7.30;65.10;;;;;;5070059;28;20439;-71
2021/03/22 12:23:02;;;;;;;6.80;3.17;;;7.40;65.40;;;;;;5068415;28;20441;-72
2021/03/22 12:25:31;;;;;;;6.97;3.30;;;7.40;65.40;;;;;;5066918;28;20450;-71
2021/03/22 12:27:58;;;;;;;11.43;2.83;;;7.20;63.40;;;;;;5070592;28;20429;-72
2021/03/22 12:30:25;;;;;;;12.30;5.00;;;6.90;64.80;;;;;;5069947;28;20426;-71
2021/03/22 12:32:52;;;;;;;9.13;3.33;;;6.80;66.40;;;;;;5058249;28;20512;-71
2021/03/22 12:35:38;;;;;;;5.47;3.20;;;6.70;68.20;;;;;;5067307;28;21527;-71
2021/03/22 12:38:06;;;;;;;15.00;3.90;;;6.60;68.90;;;;;;5069716;28;20465;-71
2021/03/22 12:40:32;;;;;;;8.03;3.20;;;6.40;69.90;;;;;;5068685;28;20460;-72
2021/03/22 12:42:59;;;;;;;7.60;3.47;;;6.40;70.10;;;;;;5070904;28;20440;-71
2021/03/22 12:45:32;;;;;;;7.37;3.33;;;6.30;70.20;;;;;;5069302;28;20458;-73
2021/03/22 12:47:59;;;;;;;8.43;3.37;;;6.10;70.40;;;;;;5071384;28;20426;-72
2021/03/22 12:50:37;;;;;;;9.40;2.77;;;6.10;71.00;;;;;;5068092;28;20466;-73
2021/03/22 12:53:03;;;;;;;5.73;3.03;;;6.10;70.20;;;;;;5070063;28;21034;-72
2021/03/22 12:55:30;;;;;;;10.50;5.27;;;6.10;70.40;;;;;;5068587;28;20450;-72
2021/03/22 12:57:59;;;;;;;7.70;3.20;;;6.10;70.50;;;;;;5065926;28;21007;-72
2021/03/22 13:00:26;;;;;;;6.40;3.20;;;6.00;70.80;;;;;;5070473;28;20430;-72
2021/03/22 13:02:53;;;;;;;10.90;3.57;;;6.00;71.00;;;;;;5069722;28;20433;-72
2021/03/22 13:05:25;;;;;;;11.50;4.40;;;5.90;71.40;;;;;;5068251;28;20521;-73
2021/03/22 13:07:52;;;;;;;8.47;3.50;;;6.00;71.30;;;;;;5068512;28;20454;-71
2021/03/22 13:10:21;;;;;;;11.73;4.50;;;6.00;71.40;;;;;;5068703;28;20892;-72
2021/03/22 13:12:48;;;;;;;8.73;3.87;;;6.10;71.00;;;;;;5068168;28;20472;-71
2021/03/22 13:15:34;;;;;;;10.33;3.90;;;6.10;70.40;;;;;;5070366;28;20441;-72
2021/03/22 13:18:01;;;;;;;9.10;3.90;;;6.00;71.00;;;;;;5069670;28;20483;-71
2021/03/22 13:20:28;;;;;;;7.53;3.80;;;6.10;71.00;;;;;;5065227;28;20434;-73
2021/03/22 13:22:54;;;;;;;7.30;3.50;;;6.10;70.80;;;;;;5069075;28;20426;-71